createdAt,value
2017-08-15T00:02:18.316Z,8.60
2017-08-15T00:04:48.411Z,6.87
2017-08-15T00:07:17.741Z,12.25
2017-08-15T00:09:47.827Z,13.93
2017-08-15T00:12:17.156Z,7.07
2017-08-15T00:14:47.236Z,8.55
2017-08-15T00:17:16.577Z,7.95
2017-08-15T00:19:45.888Z,7.00
2017-08-15T00:22:16.000Z,6.90
2017-08-15T00:24:45.324Z,7.20
2017-08-15T00:27:14.629Z,7.85
2017-08-15T00:29:43.969Z,10.40
2017-08-15T00:32:13.272Z,7.87
2017-08-15T00:34:42.602Z,7.70
2017-08-15T00:37:11.905Z,6.87
2017-08-15T00:39:41.229Z,7.47
2017-08-15T00:42:10.536Z,9.02
2017-08-15T00:44:39.866Z,7.03
2017-08-15T00:47:09.176Z,8.30
2017-08-15T00:49:38.504Z,6.32
2017-08-15T00:52:07.815Z,7.18
2017-08-15T00:54:37.137Z,8.95
2017-08-15T00:57:06.441Z,8.82
2017-08-15T00:59:35.774Z,11.02
2017-08-15T01:02:05.085Z,8.52
2017-08-15T01:04:34.408Z,8.38
2017-08-15T01:07:03.710Z,8.95
2017-08-15T01:09:33.031Z,9.38
2017-08-15T01:12:02.328Z,8.73
2017-08-15T01:14:31.647Z,7.00
2017-08-15T01:17:00.952Z,7.40
2017-08-15T01:19:30.307Z,7.10
2017-08-15T01:21:59.636Z,7.65
2017-08-15T01:24:28.964Z,7.45
2017-08-15T01:26:58.262Z,6.95
2017-08-15T01:29:27.588Z,8.40
2017-08-15T01:31:56.883Z,9.88
2017-08-15T01:34:27.260Z,8.70
2017-08-15T01:36:56.556Z,8.05
2017-08-15T01:39:25.864Z,7.30
2017-08-15T01:41:55.183Z,8.90
2017-08-15T01:44:24.484Z,7.43
2017-08-15T01:46:53.814Z,6.07
2017-08-15T01:49:23.875Z,6.47
2017-08-15T01:51:53.197Z,5.97
2017-08-15T01:54:22.498Z,6.53
2017-08-15T01:56:51.819Z,9.40
2017-08-15T01:59:21.137Z,10.40
2017-08-15T02:01:51.219Z,9.52
2017-08-15T02:04:20.532Z,6.55
2017-08-15T02:06:49.858Z,6.60
2017-08-15T02:09:19.165Z,9.45
2017-08-15T02:11:49.247Z,7.35
2017-08-15T02:14:18.560Z,6.65
2017-08-15T02:16:47.880Z,7.50
2017-08-15T02:19:17.949Z,14.27
2017-08-15T02:21:47.311Z,11.52
2017-08-15T02:24:16.623Z,6.82
2017-08-15T02:26:45.947Z,5.62
2017-08-15T02:29:15.244Z,8.50
2017-08-15T02:31:44.777Z,7.53
2017-08-15T02:34:14.138Z,7.62
2017-08-15T02:36:43.460Z,11.70
2017-08-15T02:39:12.771Z,5.53
2017-08-15T02:41:42.067Z,6.82
2017-08-15T02:44:11.396Z,5.75
2017-08-15T02:46:40.697Z,6.87
2017-08-15T02:49:10.080Z,8.82
2017-08-15T02:51:39.376Z,6.07
2017-08-15T02:54:08.691Z,6.97
2017-08-15T02:56:37.996Z,8.45
2017-08-15T02:59:07.317Z,6.97
2017-08-15T03:01:36.645Z,6.65
2017-08-15T03:04:05.952Z,8.32
2017-08-15T03:06:35.273Z,7.20
2017-08-15T03:09:04.624Z,6.72
2017-08-15T03:11:34.711Z,10.35
2017-08-15T03:14:04.023Z,6.15
2017-08-15T03:16:33.324Z,8.05
2017-08-15T03:19:02.685Z,7.10
2017-08-15T03:21:31.976Z,8.52
2017-08-15T03:24:01.320Z,8.40
2017-08-15T03:26:30.611Z,6.53
2017-08-15T03:28:59.936Z,10.25
2017-08-15T03:31:29.256Z,7.37
2017-08-15T03:33:58.597Z,7.00
2017-08-15T03:36:27.895Z,7.12
2017-08-15T03:38:57.231Z,7.03
2017-08-15T03:41:26.534Z,7.53
2017-08-15T03:43:55.855Z,7.70
2017-08-15T03:46:25.176Z,8.40
2017-08-15T03:48:55.256Z,8.50
2017-08-15T03:51:24.572Z,7.70
2017-08-15T03:53:53.980Z,7.22
2017-08-15T03:56:23.327Z,10.25
2017-08-15T03:58:52.640Z,8.93
2017-08-15T04:01:21.974Z,9.50
2017-08-15T04:03:51.284Z,10.35
2017-08-15T04:06:20.609Z,9.23
2017-08-15T04:08:49.919Z,10.57
2017-08-15T04:11:19.248Z,11.20
2017-08-15T04:13:48.581Z,8.95
2017-08-15T04:16:17.892Z,12.43
2017-08-15T04:18:47.204Z,9.38
2017-08-15T04:21:16.538Z,10.32
2017-08-15T04:23:45.847Z,10.15
2017-08-15T04:26:15.174Z,12.65
2017-08-15T04:28:44.482Z,11.10
2017-08-15T04:31:13.808Z,12.35
2017-08-15T04:33:43.116Z,9.15
2017-08-15T04:36:12.452Z,10.82
2017-08-15T04:38:41.744Z,8.25
2017-08-15T04:41:11.068Z,9.90
2017-08-15T04:43:40.379Z,8.90
2017-08-15T04:46:09.685Z,15.20
2017-08-15T04:48:39.015Z,11.70
2017-08-15T04:51:08.327Z,9.20
2017-08-15T04:53:38.409Z,8.65
2017-08-15T04:56:07.724Z,10.20
2017-08-15T04:58:37.052Z,8.00
2017-08-15T05:01:06.364Z,8.77
2017-08-15T05:03:36.312Z,9.85
2017-08-15T05:06:05.619Z,11.68
2017-08-15T05:08:34.948Z,7.43
2017-08-15T05:11:04.261Z,10.63
2017-08-15T05:13:34.328Z,9.43
2017-08-15T05:16:03.643Z,8.00
2017-08-15T05:18:32.971Z,10.55
2017-08-15T05:21:02.275Z,7.15
2017-08-15T05:23:31.592Z,9.38
2017-08-15T05:26:01.655Z,9.02
2017-08-15T05:28:30.989Z,7.20
2017-08-15T05:31:00.331Z,12.85
2017-08-15T05:33:30.408Z,9.57
2017-08-15T05:35:59.764Z,7.10
2017-08-15T05:38:29.059Z,10.18
2017-08-15T05:40:58.380Z,9.63
2017-08-15T05:43:27.688Z,11.35
2017-08-15T05:45:57.008Z,10.63
2017-08-15T05:48:26.311Z,6.30
2017-08-15T05:50:55.630Z,8.10
2017-08-15T05:53:24.933Z,9.13
2017-08-15T05:55:54.251Z,11.82
2017-08-15T05:58:24.331Z,8.77
2017-08-15T06:00:53.654Z,7.22
2017-08-15T06:03:22.968Z,11.23
2017-08-15T06:05:52.276Z,9.93
2017-08-15T06:08:21.597Z,10.18
2017-08-15T06:10:50.977Z,10.73
2017-08-15T06:13:20.299Z,6.47
2017-08-15T06:15:49.607Z,9.15
2017-08-15T06:18:18.917Z,12.25
2017-08-15T06:20:48.321Z,6.40
2017-08-15T06:23:17.623Z,5.70
2017-08-15T06:25:46.932Z,6.68
2017-08-15T06:28:16.249Z,6.15
2017-08-15T06:30:45.571Z,5.90
2017-08-15T06:33:14.891Z,6.55
2017-08-15T06:35:44.960Z,7.40
2017-08-15T06:38:14.304Z,8.50
2017-08-15T06:40:43.632Z,7.30
2017-08-15T06:43:12.961Z,6.40
2017-08-15T06:45:42.264Z,9.43
2017-08-15T06:48:11.584Z,8.57
2017-08-15T06:50:40.899Z,8.07
2017-08-15T06:53:10.212Z,7.25
2017-08-15T06:55:40.284Z,19.75
2017-08-15T06:58:09.619Z,8.13
2017-08-15T07:00:38.938Z,9.18
2017-08-15T07:03:09.032Z,9.85
2017-08-15T07:05:38.347Z,9.25
2017-08-15T07:08:07.677Z,8.98
2017-08-15T07:10:36.991Z,12.10
2017-08-15T07:13:06.316Z,8.93
2017-08-15T07:15:36.443Z,10.07
2017-08-15T07:18:05.836Z,7.30
2017-08-15T07:20:35.202Z,10.25
2017-08-15T07:23:05.281Z,6.30
2017-08-15T07:25:34.590Z,8.38
2017-08-15T07:28:03.929Z,7.68
2017-08-15T07:30:33.241Z,10.73
2017-08-15T07:33:02.588Z,8.27
2017-08-15T07:35:32.859Z,12.20
2017-08-15T07:38:02.196Z,13.20
2017-08-15T07:40:31.523Z,6.85
2017-08-15T07:43:00.844Z,10.52
2017-08-15T07:45:30.948Z,9.02
2017-08-15T07:48:01.039Z,6.53
2017-08-15T07:50:31.167Z,9.63
2017-08-15T07:53:00.485Z,8.23
2017-08-15T07:55:29.816Z,9.93
2017-08-15T07:57:59.918Z,8.75
2017-08-15T08:00:29.249Z,13.50
2017-08-15T08:02:58.568Z,8.02
2017-08-15T08:05:27.933Z,10.40
2017-08-15T08:07:58.004Z,8.20
2017-08-15T08:10:27.344Z,9.55
2017-08-15T08:12:56.661Z,7.68
2017-08-15T08:15:26.761Z,8.75
2017-08-15T08:17:56.085Z,12.25
2017-08-15T08:20:25.424Z,6.55
2017-08-15T08:22:54.727Z,13.45
2017-08-15T08:25:24.057Z,5.32
2017-08-15T08:27:53.367Z,5.55
2017-08-15T08:30:22.708Z,7.12
2017-08-15T08:32:52.019Z,6.97
2017-08-15T08:35:21.393Z,5.45
2017-08-15T08:37:51.488Z,5.20
2017-08-15T08:40:20.840Z,4.70
2017-08-15T08:42:50.172Z,5.45
2017-08-15T08:45:19.486Z,6.07
2017-08-15T08:47:48.841Z,5.05
2017-08-15T08:50:18.182Z,5.90
2017-08-15T08:52:47.501Z,4.80
2017-08-15T08:55:17.604Z,4.72
2017-08-15T08:57:46.936Z,5.10
2017-08-15T09:00:17.015Z,4.27
2017-08-15T09:02:46.343Z,6.75
2017-08-15T09:05:15.709Z,5.20
2017-08-15T09:07:45.034Z,5.95
2017-08-15T09:10:14.372Z,6.50
2017-08-15T09:12:44.472Z,6.43
2017-08-15T09:15:13.824Z,8.77
2017-08-15T09:17:43.160Z,4.03
2017-08-15T09:20:12.464Z,4.10
2017-08-15T09:22:41.789Z,6.40
2017-08-15T09:25:11.872Z,4.63
2017-08-15T09:27:41.248Z,4.60
2017-08-15T09:30:10.579Z,6.18
2017-08-15T09:32:39.931Z,4.30
2017-08-15T09:35:10.007Z,6.37
2017-08-15T09:37:39.360Z,5.47
2017-08-15T09:40:08.687Z,3.70
2017-08-15T09:42:38.038Z,4.43
2017-08-15T09:45:08.919Z,5.53
2017-08-15T09:47:38.236Z,4.17
2017-08-15T09:50:07.567Z,3.97
2017-08-15T09:52:36.867Z,4.87
2017-08-15T09:55:06.195Z,3.90
2017-08-15T09:57:35.501Z,12.43
2017-08-15T10:00:04.826Z,4.97
2017-08-15T10:02:34.128Z,9.07
2017-08-15T10:05:03.460Z,7.43
2017-08-15T10:07:32.766Z,4.20
2017-08-15T10:10:02.090Z,6.57
2017-08-15T10:12:31.409Z,4.90
2017-08-15T10:15:01.506Z,4.73
2017-08-15T10:17:30.809Z,4.20
2017-08-15T10:20:00.144Z,9.77
2017-08-15T10:22:29.472Z,7.70
2017-08-15T10:24:58.802Z,4.40
2017-08-15T10:27:28.117Z,5.70
2017-08-15T10:29:57.420Z,5.20
2017-08-15T10:32:27.520Z,4.37
2017-08-15T10:34:56.826Z,4.60
2017-08-15T10:37:26.148Z,4.57
2017-08-15T10:39:55.453Z,4.63
2017-08-15T10:42:25.540Z,6.13
2017-08-15T10:44:54.848Z,4.63
2017-08-15T10:47:24.177Z,3.93
2017-08-15T10:49:53.483Z,9.30
2017-08-15T10:52:23.569Z,4.17
2017-08-15T10:54:52.867Z,5.63
2017-08-15T10:57:22.183Z,5.90
2017-08-15T10:59:51.495Z,7.23
2017-08-15T11:02:20.824Z,5.57
2017-08-15T11:04:50.132Z,4.50
2017-08-15T11:07:19.464Z,3.80
2017-08-15T11:09:48.780Z,8.87
2017-08-15T11:12:18.110Z,3.67
2017-08-15T11:14:47.437Z,4.00
2017-08-15T11:17:16.748Z,7.80
2017-08-15T11:19:46.077Z,3.80
2017-08-15T11:22:15.413Z,4.10
2017-08-15T11:24:44.721Z,7.57
2017-08-15T11:27:15.168Z,3.83
2017-08-15T11:29:44.472Z,7.13
2017-08-15T11:32:13.781Z,3.60
2017-08-15T11:34:43.384Z,4.20
2017-08-15T11:37:12.691Z,5.43
2017-08-15T11:39:42.047Z,4.63
2017-08-15T11:42:12.132Z,3.97
2017-08-15T11:44:41.457Z,4.23
2017-08-15T11:47:16.198Z,4.83
2017-08-15T11:49:46.293Z,5.20
2017-08-15T11:52:15.605Z,3.20
2017-08-15T11:54:44.928Z,3.70
2017-08-15T11:57:15.006Z,3.60
2017-08-15T11:59:44.326Z,3.30
2017-08-15T12:02:13.636Z,4.40
2017-08-15T12:04:42.955Z,5.07
2017-08-15T12:07:12.269Z,4.00
2017-08-15T12:09:41.591Z,3.73
2017-08-15T12:12:10.899Z,4.00
2017-08-15T12:14:40.243Z,3.33
2017-08-15T12:17:09.548Z,3.53
2017-08-15T12:19:38.875Z,3.53
2017-08-15T12:22:08.184Z,4.13
2017-08-15T12:24:37.483Z,5.80
2017-08-15T12:27:06.803Z,3.93
2017-08-15T12:29:36.124Z,3.77
2017-08-15T12:32:05.444Z,3.87
2017-08-15T12:34:34.744Z,5.03
2017-08-15T12:37:04.063Z,4.73
2017-08-15T12:39:34.136Z,3.77
2017-08-15T12:42:03.509Z,4.17
2017-08-15T12:44:32.807Z,3.47
2017-08-15T12:47:02.128Z,6.03
2017-08-15T12:49:31.452Z,3.30
2017-08-15T12:52:00.764Z,3.90
2017-08-15T12:54:30.095Z,6.00
2017-08-15T12:57:00.177Z,8.30
2017-08-15T12:59:29.496Z,12.03
2017-08-15T13:01:58.828Z,20.57
2017-08-15T13:04:28.155Z,15.30
2017-08-15T13:06:57.480Z,11.57
2017-08-15T13:09:26.800Z,12.35
2017-08-15T13:11:56.116Z,8.98
2017-08-15T13:14:25.433Z,11.05
2017-08-15T13:16:55.528Z,8.93
2017-08-15T13:19:24.844Z,9.95
2017-08-15T13:21:54.169Z,9.27
2017-08-15T13:24:23.468Z,12.32
2017-08-15T13:26:53.572Z,17.67
2017-08-15T13:29:22.934Z,14.52
2017-08-15T13:31:52.282Z,12.07
2017-08-15T13:34:21.610Z,10.63
2017-08-15T13:36:50.914Z,11.75
2017-08-15T13:39:20.241Z,11.07
2017-08-15T13:41:49.549Z,7.75
2017-08-15T13:44:18.897Z,12.75
2017-08-15T13:46:48.193Z,8.80
2017-08-15T13:49:17.541Z,10.68
2017-08-15T13:51:46.841Z,16.73
2017-08-15T13:54:16.163Z,8.27
2017-08-15T13:56:45.479Z,14.43
2017-08-15T13:59:14.810Z,6.50
2017-08-15T14:01:44.872Z,7.57
2017-08-15T14:04:14.201Z,14.40
2017-08-15T14:06:43.541Z,8.18
2017-08-15T14:09:12.852Z,9.18
2017-08-15T14:11:42.157Z,9.70
2017-08-15T14:14:11.484Z,8.90
2017-08-15T14:16:41.093Z,23.12
2017-08-15T14:19:10.437Z,8.73
2017-08-15T14:21:39.740Z,12.48
2017-08-15T14:24:09.865Z,7.95
2017-08-15T14:26:39.194Z,10.15
2017-08-15T14:29:08.518Z,6.50
2017-08-15T14:31:37.826Z,6.47
2017-08-15T14:34:07.171Z,11.88
2017-08-15T14:36:36.539Z,8.70
2017-08-15T14:39:05.980Z,10.65
2017-08-15T14:41:35.325Z,6.68
2017-08-15T14:44:04.691Z,7.85
2017-08-15T14:46:34.040Z,8.27
2017-08-15T14:49:03.401Z,6.40
2017-08-15T14:51:32.733Z,9.52
2017-08-15T14:54:02.053Z,9.88
2017-08-15T14:56:31.376Z,6.90
2017-08-15T14:59:01.465Z,10.25
2017-08-15T15:01:30.797Z,7.00
2017-08-15T15:04:01.397Z,6.90
2017-08-15T15:06:30.726Z,9.25
2017-08-15T15:09:00.041Z,11.07
2017-08-15T15:11:29.424Z,11.55
2017-08-15T15:13:58.808Z,11.57
2017-08-15T15:16:28.124Z,6.75
2017-08-15T15:18:57.438Z,8.18
2017-08-15T15:21:26.769Z,15.23
2017-08-15T15:23:56.093Z,7.05
2017-08-15T15:26:25.421Z,7.05
2017-08-15T15:28:54.772Z,7.50
2017-08-15T15:31:24.165Z,6.90
2017-08-15T15:33:54.249Z,9.40
2017-08-15T15:36:23.585Z,10.15
2017-08-15T15:38:52.923Z,6.57
2017-08-15T15:41:22.282Z,7.80
2017-08-15T15:43:51.619Z,9.88
2017-08-15T15:46:21.009Z,10.90
2017-08-15T15:48:50.336Z,14.75
2017-08-15T15:51:20.445Z,8.45
2017-08-15T15:53:49.765Z,10.30
2017-08-15T15:56:19.910Z,8.43
2017-08-15T15:58:49.252Z,10.50
2017-08-15T16:01:18.572Z,6.45
2017-08-15T16:03:47.905Z,7.60
2017-08-15T16:06:17.234Z,9.52
2017-08-15T16:08:46.572Z,6.35
2017-08-15T16:11:15.890Z,6.75
2017-08-15T16:13:45.226Z,6.90
2017-08-15T16:16:14.549Z,10.75
2017-08-15T16:18:43.881Z,12.32
2017-08-15T16:21:13.217Z,8.27
2017-08-15T16:23:42.553Z,10.23
2017-08-15T16:26:11.876Z,9.23
2017-08-15T16:28:41.212Z,7.40
2017-08-15T16:31:10.524Z,8.00
2017-08-15T16:33:40.722Z,13.52
2017-08-15T16:36:10.032Z,10.00
2017-08-15T16:38:40.143Z,19.02
2017-08-15T16:41:10.228Z,12.37
2017-08-15T16:43:39.624Z,12.73
2017-08-15T16:46:08.941Z,8.35
2017-08-15T16:48:39.302Z,11.77
2017-08-15T16:51:08.629Z,14.38
2017-08-15T16:53:37.968Z,12.07
2017-08-15T16:56:07.293Z,11.23
2017-08-15T16:58:37.389Z,14.75
2017-08-15T17:01:07.180Z,7.75
2017-08-15T17:03:36.512Z,10.18
2017-08-15T17:06:05.840Z,9.70
2017-08-15T17:08:35.177Z,8.30
2017-08-15T17:11:04.495Z,9.18
2017-08-15T17:13:33.841Z,9.98
2017-08-15T17:16:03.928Z,9.13
2017-08-15T17:18:33.237Z,8.13
2017-08-15T17:21:02.569Z,11.38
2017-08-15T17:23:31.886Z,12.80
2017-08-15T17:26:01.213Z,12.27
2017-08-15T17:28:30.517Z,11.38
2017-08-15T17:30:59.937Z,9.20
2017-08-15T17:33:29.274Z,14.80
2017-08-15T17:35:58.600Z,15.40
2017-08-15T17:38:27.920Z,24.20
2017-08-15T17:40:57.262Z,17.33
2017-08-15T17:43:26.584Z,12.25
2017-08-15T17:45:56.906Z,17.35
2017-08-15T17:48:27.013Z,14.25
2017-08-15T17:50:56.341Z,14.02
2017-08-15T17:53:25.656Z,13.52
2017-08-15T17:55:54.982Z,12.05
2017-08-15T17:58:24.295Z,10.15
2017-08-15T18:00:53.633Z,17.25
2017-08-15T18:03:22.953Z,10.98
2017-08-15T18:05:52.298Z,14.85
2017-08-15T18:08:21.624Z,13.05
2017-08-15T18:10:51.004Z,13.82
2017-08-15T18:13:21.092Z,13.00
2017-08-15T18:15:50.441Z,11.93
2017-08-15T18:18:19.754Z,11.65
2017-08-15T18:20:49.095Z,13.88
2017-08-15T18:23:18.433Z,13.00
2017-08-15T18:25:47.765Z,19.00
2017-08-15T18:28:17.093Z,16.37
2017-08-15T18:30:46.426Z,13.27
2017-08-15T18:33:15.744Z,13.35
2017-08-15T18:35:45.085Z,11.10
2017-08-15T18:38:14.427Z,13.35
2017-08-15T18:40:43.753Z,10.50
2017-08-15T18:43:13.088Z,12.20
2017-08-15T18:45:42.406Z,11.80
2017-08-15T18:48:11.736Z,14.35
2017-08-15T18:50:41.815Z,10.95
2017-08-15T18:53:11.149Z,15.45
2017-08-15T18:55:40.485Z,10.95
2017-08-15T18:58:09.829Z,17.17
2017-08-15T19:00:39.144Z,14.15
2017-08-15T19:03:08.485Z,11.50
2017-08-15T19:05:37.793Z,9.88
2017-08-15T19:08:07.141Z,12.70
2017-08-15T19:10:36.460Z,18.27
2017-08-15T19:13:05.789Z,16.87
2017-08-15T19:15:35.101Z,12.73
2017-08-15T19:18:04.437Z,13.65
2017-08-15T19:20:33.744Z,15.48
2017-08-15T19:23:03.088Z,15.57
2017-08-15T19:25:32.404Z,12.00
2017-08-15T19:28:01.733Z,12.37
2017-08-15T19:30:31.058Z,10.82
2017-08-15T19:33:00.441Z,11.77
2017-08-15T19:35:29.758Z,11.38
2017-08-15T19:37:59.090Z,13.30
2017-08-15T19:40:28.401Z,15.52
2017-08-15T19:42:57.729Z,13.98
2017-08-15T19:45:27.060Z,11.85
2017-08-15T19:47:56.372Z,12.02
2017-08-15T19:50:25.714Z,14.73
2017-08-15T19:52:55.092Z,12.05
2017-08-15T19:55:24.409Z,15.73
2017-08-15T19:57:53.734Z,13.25
2017-08-15T20:00:23.081Z,15.55
2017-08-15T20:02:52.388Z,10.77
2017-08-15T20:05:21.713Z,11.12
2017-08-15T20:07:51.042Z,12.55
2017-08-15T20:10:20.365Z,13.45
2017-08-15T20:12:49.705Z,17.83
2017-08-15T20:15:19.072Z,19.90
2017-08-15T20:17:48.434Z,18.67
2017-08-15T20:20:17.823Z,20.48
2017-08-15T20:22:47.929Z,16.80
2017-08-15T20:25:17.258Z,21.98
2017-08-15T20:27:46.590Z,21.37
2017-08-15T20:30:15.925Z,20.08
2017-08-15T20:32:45.215Z,15.85
2017-08-15T20:35:14.525Z,16.62
2017-08-15T20:37:43.825Z,16.90
2017-08-15T20:40:13.133Z,15.95
2017-08-15T20:42:42.428Z,20.30
2017-08-15T20:45:11.744Z,15.00
2017-08-15T20:47:41.141Z,21.12
2017-08-15T20:50:10.449Z,13.75
2017-08-15T20:52:39.836Z,12.80
2017-08-15T20:55:09.132Z,19.95
2017-08-15T20:57:38.533Z,14.10
2017-08-15T21:00:07.841Z,11.73
2017-08-15T21:02:37.168Z,12.05
2017-08-15T21:05:06.472Z,14.77
2017-08-15T21:07:35.801Z,12.40
2017-08-15T21:10:05.868Z,10.07
2017-08-15T21:12:35.188Z,10.77
2017-08-15T21:15:04.496Z,11.32
2017-08-15T21:17:33.821Z,10.27
2017-08-15T21:20:03.897Z,9.85
2017-08-15T21:22:33.218Z,13.20
2017-08-15T21:25:02.537Z,12.57
2017-08-15T21:27:32.626Z,16.75
2017-08-15T21:30:01.915Z,12.80
2017-08-15T21:32:31.238Z,14.30
2017-08-15T21:35:00.530Z,9.98
2017-08-15T21:37:29.837Z,12.32
2017-08-15T21:39:59.130Z,10.68
2017-08-15T21:42:28.440Z,9.85
2017-08-15T21:44:57.729Z,13.32
2017-08-15T21:47:27.037Z,11.30
2017-08-15T21:49:56.329Z,11.55
2017-08-15T21:52:25.644Z,15.32
2017-08-15T21:54:54.964Z,11.52
2017-08-15T21:57:25.148Z,18.55
2017-08-15T21:59:54.448Z,12.70
2017-08-15T22:02:23.762Z,10.95
2017-08-15T22:04:53.084Z,15.90
2017-08-15T22:07:22.401Z,10.00
2017-08-15T22:09:52.497Z,9.98
2017-08-15T22:12:21.811Z,12.90
2017-08-15T22:14:51.129Z,8.70
2017-08-15T22:17:20.443Z,8.50
2017-08-15T22:19:50.517Z,8.88
2017-08-15T22:22:19.825Z,8.38
2017-08-15T22:24:49.157Z,10.82
2017-08-15T22:27:18.495Z,11.43
2017-08-15T22:29:47.812Z,10.15
2017-08-15T22:32:17.130Z,12.32
2017-08-15T22:34:46.445Z,9.23
2017-08-15T22:37:16.534Z,13.48
2017-08-15T22:39:45.869Z,11.30
2017-08-15T22:42:15.947Z,9.50
2017-08-15T22:44:45.277Z,13.82
2017-08-15T22:47:14.593Z,15.13
2017-08-15T22:49:44.680Z,9.85
2017-08-15T22:52:13.988Z,9.75
2017-08-15T22:54:43.324Z,11.25
2017-08-15T22:57:13.402Z,7.45
2017-08-15T22:59:42.728Z,9.38
2017-08-15T23:02:12.048Z,9.70
2017-08-15T23:04:41.349Z,9.45
2017-08-15T23:07:11.427Z,8.55
2017-08-15T23:09:40.733Z,9.13
2017-08-15T23:12:10.051Z,10.85
2017-08-15T23:14:40.128Z,6.20
2017-08-15T23:17:09.444Z,9.18
2017-08-15T23:19:38.745Z,9.20
2017-08-15T23:22:08.068Z,10.75
2017-08-15T23:24:37.382Z,6.97
2017-08-15T23:27:07.469Z,6.53
2017-08-15T23:29:36.776Z,7.45
2017-08-15T23:32:06.098Z,9.05
2017-08-15T23:34:35.392Z,8.88
2017-08-15T23:37:04.744Z,11.18
2017-08-15T23:39:34.045Z,7.30
2017-08-15T23:42:03.357Z,7.45
2017-08-15T23:44:32.668Z,8.13
2017-08-15T23:47:02.009Z,8.38
2017-08-15T23:49:31.305Z,9.30
2017-08-15T23:52:01.389Z,7.82
2017-08-15T23:54:30.695Z,6.95
2017-08-15T23:57:00.010Z,10.10
2017-08-15T23:59:30.099Z,7.55
